sensor_id;sensor_type;location;lat;lon;timestamp;temperature;humidity
26907;DHT22;14472;56.880;16.658;2022-10-16T00:00:43;14.90;1.00
26907;DHT22;14472;56.880;16.658;2022-10-16T00:03:10;14.90;1.00
26907;DHT22;14472;56.880;16.658;2022-10-16T00:05:43;14.90;1.00
26907;DHT22;14472;56.880;16.658;2022-10-16T00:08:11;15.00;1.00
26907;DHT22;14472;56.880;16.658;2022-10-16T00:10:37;15.00;1.00
26907;DHT22;14472;56.880;16.658;2022-10-16T00:13:04;15.00;1.00
26907;DHT22;14472;56.880;16.658;2022-10-16T00:15:32;15.00;1.00
26907;DHT22;14472;56.880;16.658;2022-10-16T00:17:58;15.00;1.00
26907;DHT22;14472;56.880;16.658;2022-10-16T00:20:23;15.00;1.00
26907;DHT22;14472;56.880;16.658;2022-10-16T00:22:49;15.00;1.00
26907;DHT22;14472;56.880;16.658;2022-10-16T00:25:15;15.00;1.00
26907;DHT22;14472;56.880;16.658;2022-10-16T00:27:40;15.10;1.00
26907;DHT22;14472;56.880;16.658;2022-10-16T00:30:07;15.10;1.00
26907;DHT22;14472;56.880;16.658;2022-10-16T00:32:33;15.10;1.00
26907;DHT22;14472;56.880;16.658;2022-10-16T00:34:59;15.10;1.00
26907;DHT22;14472;56.880;16.658;2022-10-16T00:37:25;15.10;1.00
26907;DHT22;14472;56.880;16.658;2022-10-16T00:39:50;15.10;1.00
26907;DHT22;14472;56.880;16.658;2022-10-16T00:42:18;15.10;1.00
26907;DHT22;14472;56.880;16.658;2022-10-16T00:44:52;15.20;1.00
26907;DHT22;14472;56.880;16.658;2022-10-16T00:47:31;15.10;1.00
26907;DHT22;14472;56.880;16.658;2022-10-16T00:50:16;15.20;1.00
26907;DHT22;14472;56.880;16.658;2022-10-16T00:52:46;15.20;1.00
26907;DHT22;14472;56.880;16.658;2022-10-16T00:55:13;15.10;1.00
26907;DHT22;14472;56.880;16.658;2022-10-16T00:57:39;15.20;1.00
26907;DHT22;14472;56.880;16.658;2022-10-16T01:00:08;15.20;1.00
26907;DHT22;14472;56.880;16.658;2022-10-16T01:02:34;15.20;1.00
26907;DHT22;14472;56.880;16.658;2022-10-16T01:05:00;15.10;1.00
26907;DHT22;14472;56.880;16.658;2022-10-16T01:15:19;15.10;1.00
26907;DHT22;14472;56.880;16.658;2022-10-16T01:17:57;15.10;1.00
26907;DHT22;14472;56.880;16.658;2022-10-16T01:20:30;15.10;1.00
26907;DHT22;14472;56.880;16.658;2022-10-16T01:28:13;15.00;1.00
26907;DHT22;14472;56.880;16.658;2022-10-16T01:30:40;15.00;1.00
26907;DHT22;14472;56.880;16.658;2022-10-16T01:33:23;15.00;1.00
26907;DHT22;14472;56.880;16.658;2022-10-16T01:35:54;15.00;1.00
26907;DHT22;14472;56.880;16.658;2022-10-16T01:38:33;15.00;1.00
26907;DHT22;14472;56.880;16.658;2022-10-16T01:41:13;15.10;1.00
26907;DHT22;14472;56.880;16.658;2022-10-16T01:43:45;15.00;1.00
26907;DHT22;14472;56.880;16.658;2022-10-16T01:46:13;15.00;1.00
26907;DHT22;14472;56.880;16.658;2022-10-16T01:48:41;15.00;1.00
26907;DHT22;14472;56.880;16.658;2022-10-16T01:51:10;15.00;1.00
26907;DHT22;14472;56.880;16.658;2022-10-16T01:53:37;15.00;1.00
26907;DHT22;14472;56.880;16.658;2022-10-16T01:56:07;15.00;1.00
26907;DHT22;14472;56.880;16.658;2022-10-16T01:58:39;15.00;1.00
26907;DHT22;14472;56.880;16.658;2022-10-16T02:01:07;15.00;1.00
26907;DHT22;14472;56.880;16.658;2022-10-16T02:03:36;15.00;1.00
26907;DHT22;14472;56.880;16.658;2022-10-16T02:06:02;15.00;1.00
26907;DHT22;14472;56.880;16.658;2022-10-16T02:08:30;15.00;1.00
26907;DHT22;14472;56.880;16.658;2022-10-16T02:10:57;15.00;1.00
26907;DHT22;14472;56.880;16.658;2022-10-16T02:13:31;15.00;1.00
26907;DHT22;14472;56.880;16.658;2022-10-16T02:15:58;15.00;1.00
26907;DHT22;14472;56.880;16.658;2022-10-16T02:18:25;15.00;1.00
26907;DHT22;14472;56.880;16.658;2022-10-16T02:20:58;15.00;1.00
26907;DHT22;14472;56.880;16.658;2022-10-16T02:23:34;15.00;1.00
26907;DHT22;14472;56.880;16.658;2022-10-16T02:26:03;15.00;1.00
26907;DHT22;14472;56.880;16.658;2022-10-16T02:28:44;15.00;1.00
26907;DHT22;14472;56.880;16.658;2022-10-16T02:31:13;15.10;1.00
26907;DHT22;14472;56.880;16.658;2022-10-16T02:33:42;15.10;1.00
26907;DHT22;14472;56.880;16.658;2022-10-16T02:36:09;15.10;1.00
26907;DHT22;14472;56.880;16.658;2022-10-16T02:38:35;15.10;1.00
26907;DHT22;14472;56.880;16.658;2022-10-16T02:41:02;15.10;1.00
26907;DHT22;14472;56.880;16.658;2022-10-16T02:43:28;15.20;1.00
26907;DHT22;14472;56.880;16.658;2022-10-16T02:45:55;15.20;1.00
26907;DHT22;14472;56.880;16.658;2022-10-16T02:48:21;15.20;1.10
26907;DHT22;14472;56.880;16.658;2022-10-16T02:50:46;15.20;1.50
26907;DHT22;14472;56.880;16.658;2022-10-16T02:53:12;15.30;2.00
26907;DHT22;14472;56.880;16.658;2022-10-16T02:55:38;15.30;1.90
26907;DHT22;14472;56.880;16.658;2022-10-16T02:58:03;15.30;1.90
26907;DHT22;14472;56.880;16.658;2022-10-16T03:00:29;15.40;2.10
26907;DHT22;14472;56.880;16.658;2022-10-16T03:02:55;15.40;2.30
26907;DHT22;14472;56.880;16.658;2022-10-16T03:05:20;15.40;2.30
26907;DHT22;14472;56.880;16.658;2022-10-16T03:07:46;15.40;2.40
26907;DHT22;14472;56.880;16.658;2022-10-16T03:10:12;15.50;2.50
26907;DHT22;14472;56.880;16.658;2022-10-16T03:12:38;15.50;2.50
26907;DHT22;14472;56.880;16.658;2022-10-16T03:15:04;15.60;2.60
26907;DHT22;14472;56.880;16.658;2022-10-16T03:17:31;15.60;2.60
26907;DHT22;14472;56.880;16.658;2022-10-16T03:19:56;15.60;2.70
26907;DHT22;14472;56.880;16.658;2022-10-16T03:22:22;15.70;2.90
26907;DHT22;14472;56.880;16.658;2022-10-16T03:24:48;15.70;3.10
26907;DHT22;14472;56.880;16.658;2022-10-16T03:27:14;15.70;3.30
26907;DHT22;14472;56.880;16.658;2022-10-16T03:29:39;15.80;3.50
26907;DHT22;14472;56.880;16.658;2022-10-16T03:32:05;15.80;3.40
26907;DHT22;14472;56.880;16.658;2022-10-16T03:34:31;15.80;3.10
26907;DHT22;14472;56.880;16.658;2022-10-16T03:36:57;15.80;2.90
26907;DHT22;14472;56.880;16.658;2022-10-16T03:39:22;15.80;3.10
26907;DHT22;14472;56.880;16.658;2022-10-16T03:41:48;15.90;3.00
26907;DHT22;14472;56.880;16.658;2022-10-16T03:44:14;15.90;3.00
26907;DHT22;14472;56.880;16.658;2022-10-16T03:46:39;15.90;2.80
26907;DHT22;14472;56.880;16.658;2022-10-16T03:49:05;15.90;2.60
26907;DHT22;14472;56.880;16.658;2022-10-16T03:51:31;16.00;2.60
26907;DHT22;14472;56.880;16.658;2022-10-16T03:53:57;16.00;2.50
26907;DHT22;14472;56.880;16.658;2022-10-16T03:56:22;16.00;2.40
26907;DHT22;14472;56.880;16.658;2022-10-16T03:58:48;16.00;2.40
26907;DHT22;14472;56.880;16.658;2022-10-16T04:01:14;16.00;1.90
26907;DHT22;14472;56.880;16.658;2022-10-16T04:03:39;16.00;1.70
26907;DHT22;14472;56.880;16.658;2022-10-16T04:06:05;16.00;1.60
26907;DHT22;14472;56.880;16.658;2022-10-16T04:08:31;16.10;2.30
26907;DHT22;14472;56.880;16.658;2022-10-16T04:11:00;16.10;1.70
26907;DHT22;14472;56.880;16.658;2022-10-16T04:13:26;16.10;1.50
26907;DHT22;14472;56.880;16.658;2022-10-16T04:15:52;16.10;1.50
26907;DHT22;14472;56.880;16.658;2022-10-16T04:18:17;16.10;1.30
26907;DHT22;14472;56.880;16.658;2022-10-16T04:20:43;16.10;1.40
26907;DHT22;14472;56.880;16.658;2022-10-16T04:23:09;16.10;1.20
26907;DHT22;14472;56.880;16.658;2022-10-16T04:25:34;16.10;1.00
26907;DHT22;14472;56.880;16.658;2022-10-16T04:28:00;16.10;1.00
26907;DHT22;14472;56.880;16.658;2022-10-16T04:30:26;16.10;1.00
26907;DHT22;14472;56.880;16.658;2022-10-16T04:32:52;16.10;1.00
26907;DHT22;14472;56.880;16.658;2022-10-16T04:35:19;16.10;1.00
26907;DHT22;14472;56.880;16.658;2022-10-16T04:37:46;16.10;1.00
26907;DHT22;14472;56.880;16.658;2022-10-16T04:40:12;16.10;1.00
26907;DHT22;14472;56.880;16.658;2022-10-16T04:42:38;16.10;1.00
26907;DHT22;14472;56.880;16.658;2022-10-16T04:45:05;16.10;1.00
26907;DHT22;14472;56.880;16.658;2022-10-16T04:47:31;16.10;1.00
26907;DHT22;14472;56.880;16.658;2022-10-16T04:49:56;16.10;1.00
26907;DHT22;14472;56.880;16.658;2022-10-16T04:52:22;16.10;1.00
26907;DHT22;14472;56.880;16.658;2022-10-16T04:54:50;16.10;1.00
26907;DHT22;14472;56.880;16.658;2022-10-16T04:57:17;16.00;1.00
26907;DHT22;14472;56.880;16.658;2022-10-16T04:59:43;16.10;1.00
26907;DHT22;14472;56.880;16.658;2022-10-16T05:02:08;16.10;1.00
26907;DHT22;14472;56.880;16.658;2022-10-16T05:04:34;16.10;1.00
26907;DHT22;14472;56.880;16.658;2022-10-16T05:07:00;16.10;1.00
26907;DHT22;14472;56.880;16.658;2022-10-16T05:09:25;16.10;1.00
26907;DHT22;14472;56.880;16.658;2022-10-16T05:11:51;16.00;1.00
26907;DHT22;14472;56.880;16.658;2022-10-16T05:14:17;16.00;1.00
26907;DHT22;14472;56.880;16.658;2022-10-16T05:16:42;16.00;1.00
26907;DHT22;14472;56.880;16.658;2022-10-16T05:19:08;16.10;1.00
26907;DHT22;14472;56.880;16.658;2022-10-16T05:21:34;16.10;1.00
26907;DHT22;14472;56.880;16.658;2022-10-16T05:23:59;16.10;1.00
26907;DHT22;14472;56.880;16.658;2022-10-16T05:26:25;16.10;1.00
26907;DHT22;14472;56.880;16.658;2022-10-16T05:28:51;16.10;1.00
26907;DHT22;14472;56.880;16.658;2022-10-16T05:31:16;16.10;1.00
26907;DHT22;14472;56.880;16.658;2022-10-16T05:33:42;16.10;1.00
26907;DHT22;14472;56.880;16.658;2022-10-16T05:36:10;16.10;1.00
26907;DHT22;14472;56.880;16.658;2022-10-16T05:38:36;16.10;1.00
26907;DHT22;14472;56.880;16.658;2022-10-16T05:41:04;16.10;1.00
26907;DHT22;14472;56.880;16.658;2022-10-16T05:43:30;16.00;1.00
26907;DHT22;14472;56.880;16.658;2022-10-16T05:45:58;16.00;1.00
26907;DHT22;14472;56.880;16.658;2022-10-16T05:48:25;16.00;1.00
26907;DHT22;14472;56.880;16.658;2022-10-16T05:51:02;16.00;1.00
26907;DHT22;14472;56.880;16.658;2022-10-16T05:53:29;16.00;1.00
26907;DHT22;14472;56.880;16.658;2022-10-16T05:55:56;15.90;1.00
26907;DHT22;14472;56.880;16.658;2022-10-16T05:58:22;15.90;1.00
26907;DHT22;14472;56.880;16.658;2022-10-16T06:01:18;15.90;1.00
26907;DHT22;14472;56.880;16.658;2022-10-16T06:03:44;15.80;1.00
26907;DHT22;14472;56.880;16.658;2022-10-16T06:06:18;15.80;1.00
26907;DHT22;14472;56.880;16.658;2022-10-16T06:08:45;15.80;1.00
26907;DHT22;14472;56.880;16.658;2022-10-16T06:11:14;15.80;1.00
26907;DHT22;14472;56.880;16.658;2022-10-16T06:13:40;15.70;1.00
26907;DHT22;14472;56.880;16.658;2022-10-16T06:16:12;15.70;1.00
26907;DHT22;14472;56.880;16.658;2022-10-16T06:18:37;15.70;1.00
26907;DHT22;14472;56.880;16.658;2022-10-16T06:21:18;15.60;1.00
26907;DHT22;14472;56.880;16.658;2022-10-16T06:23:44;15.70;1.00
26907;DHT22;14472;56.880;16.658;2022-10-16T06:26:17;15.70;1.00
26907;DHT22;14472;56.880;16.658;2022-10-16T06:28:43;15.60;1.00
26907;DHT22;14472;56.880;16.658;2022-10-16T06:31:10;15.60;1.00
26907;DHT22;14472;56.880;16.658;2022-10-16T06:33:37;15.60;1.00
26907;DHT22;14472;56.880;16.658;2022-10-16T06:36:08;15.60;1.00
26907;DHT22;14472;56.880;16.658;2022-10-16T06:38:35;15.60;1.00
26907;DHT22;14472;56.880;16.658;2022-10-16T06:41:01;15.60;1.00
26907;DHT22;14472;56.880;16.658;2022-10-16T06:43:28;15.50;1.00
26907;DHT22;14472;56.880;16.658;2022-10-16T06:45:58;15.50;1.00
26907;DHT22;14472;56.880;16.658;2022-10-16T06:48:24;15.50;1.00
26907;DHT22;14472;56.880;16.658;2022-10-16T06:51:00;15.50;1.00
26907;DHT22;14472;56.880;16.658;2022-10-16T06:53:27;15.50;1.00
26907;DHT22;14472;56.880;16.658;2022-10-16T06:55:54;15.50;1.00
26907;DHT22;14472;56.880;16.658;2022-10-16T06:58:19;15.50;1.00
26907;DHT22;14472;56.880;16.658;2022-10-16T07:00:45;15.60;1.00
26907;DHT22;14472;56.880;16.658;2022-10-16T07:03:11;15.60;1.00
26907;DHT22;14472;56.880;16.658;2022-10-16T07:05:43;15.60;1.00
26907;DHT22;14472;56.880;16.658;2022-10-16T07:08:09;15.60;1.00
26907;DHT22;14472;56.880;16.658;2022-10-16T07:10:35;15.70;1.00
26907;DHT22;14472;56.880;16.658;2022-10-16T07:13:01;15.60;1.00
26907;DHT22;14472;56.880;16.658;2022-10-16T07:15:27;15.70;1.00
26907;DHT22;14472;56.880;16.658;2022-10-16T07:17:53;15.70;1.00
26907;DHT22;14472;56.880;16.658;2022-10-16T07:20:19;15.80;1.00
26907;DHT22;14472;56.880;16.658;2022-10-16T07:22:45;15.80;1.00
26907;DHT22;14472;56.880;16.658;2022-10-16T07:25:11;15.90;1.00
26907;DHT22;14472;56.880;16.658;2022-10-16T07:27:37;15.90;1.00
26907;DHT22;14472;56.880;16.658;2022-10-16T07:30:04;15.90;1.00
26907;DHT22;14472;56.880;16.658;2022-10-16T07:32:30;16.00;1.00
26907;DHT22;14472;56.880;16.658;2022-10-16T07:34:56;16.00;1.00
26907;DHT22;14472;56.880;16.658;2022-10-16T07:37:22;16.10;1.00
26907;DHT22;14472;56.880;16.658;2022-10-16T07:39:47;16.10;1.00
26907;DHT22;14472;56.880;16.658;2022-10-16T07:42:13;16.10;1.00
26907;DHT22;14472;56.880;16.658;2022-10-16T07:44:39;16.10;1.00
26907;DHT22;14472;56.880;16.658;2022-10-16T07:47:06;16.10;1.00
26907;DHT22;14472;56.880;16.658;2022-10-16T07:49:32;16.10;1.00
26907;DHT22;14472;56.880;16.658;2022-10-16T07:51:58;16.10;1.00
26907;DHT22;14472;56.880;16.658;2022-10-16T07:54:23;16.10;1.00
26907;DHT22;14472;56.880;16.658;2022-10-16T07:56:49;16.20;1.00
26907;DHT22;14472;56.880;16.658;2022-10-16T07:59:14;16.20;1.00
26907;DHT22;14472;56.880;16.658;2022-10-16T08:01:40;16.20;1.00
26907;DHT22;14472;56.880;16.658;2022-10-16T08:04:08;16.20;1.00
26907;DHT22;14472;56.880;16.658;2022-10-16T08:06:39;16.30;1.00
26907;DHT22;14472;56.880;16.658;2022-10-16T08:09:06;16.30;1.00
26907;DHT22;14472;56.880;16.658;2022-10-16T08:11:32;16.30;1.00
26907;DHT22;14472;56.880;16.658;2022-10-16T08:13:58;16.40;1.00
26907;DHT22;14472;56.880;16.658;2022-10-16T08:16:24;16.30;1.00
26907;DHT22;14472;56.880;16.658;2022-10-16T08:18:50;16.30;1.00
26907;DHT22;14472;56.880;16.658;2022-10-16T08:21:20;16.40;1.00
26907;DHT22;14472;56.880;16.658;2022-10-16T08:23:46;16.30;1.00
26907;DHT22;14472;56.880;16.658;2022-10-16T08:26:12;16.30;1.00
26907;DHT22;14472;56.880;16.658;2022-10-16T08:28:38;16.30;1.00
26907;DHT22;14472;56.880;16.658;2022-10-16T08:31:14;16.20;1.00
26907;DHT22;14472;56.880;16.658;2022-10-16T08:33:42;16.30;1.00
26907;DHT22;14472;56.880;16.658;2022-10-16T08:36:10;16.40;1.00
26907;DHT22;14472;56.880;16.658;2022-10-16T08:38:36;16.40;1.00
26907;DHT22;14472;56.880;16.658;2022-10-16T08:47:20;16.40;1.00
26907;DHT22;14472;56.880;16.658;2022-10-16T08:49:58;16.50;1.00
26907;DHT22;14472;56.880;16.658;2022-10-16T08:52:29;16.40;1.00
26907;DHT22;14472;56.880;16.658;2022-10-16T08:54:56;16.50;1.00
26907;DHT22;14472;56.880;16.658;2022-10-16T08:57:24;16.50;1.00
26907;DHT22;14472;56.880;16.658;2022-10-16T08:59:52;16.50;1.00
26907;DHT22;14472;56.880;16.658;2022-10-16T09:02:40;16.50;1.00
26907;DHT22;14472;56.880;16.658;2022-10-16T09:05:48;16.60;1.00
26907;DHT22;14472;56.880;16.658;2022-10-16T09:11:22;16.70;1.00
26907;DHT22;14472;56.880;16.658;2022-10-16T09:16:51;16.70;1.00
26907;DHT22;14472;56.880;16.658;2022-10-16T09:19:34;16.80;1.00
26907;DHT22;14472;56.880;16.658;2022-10-16T09:22:12;16.80;1.00
26907;DHT22;14472;56.880;16.658;2022-10-16T09:24:39;16.90;1.00
26907;DHT22;14472;56.880;16.658;2022-10-16T09:27:17;16.90;1.00
26907;DHT22;14472;56.880;16.658;2022-10-16T09:29:42;16.90;1.00
26907;DHT22;14472;56.880;16.658;2022-10-16T09:32:14;16.90;1.00
26907;DHT22;14472;56.880;16.658;2022-10-16T09:34:49;16.90;1.00
26907;DHT22;14472;56.880;16.658;2022-10-16T09:37:19;16.90;1.00
26907;DHT22;14472;56.880;16.658;2022-10-16T09:39:53;16.90;1.00
26907;DHT22;14472;56.880;16.658;2022-10-16T09:42:35;17.00;1.00
26907;DHT22;14472;56.880;16.658;2022-10-16T09:45:21;17.00;1.00
26907;DHT22;14472;56.880;16.658;2022-10-16T09:47:49;17.00;1.00
26907;DHT22;14472;56.880;16.658;2022-10-16T09:50:26;17.00;1.00
26907;DHT22;14472;56.880;16.658;2022-10-16T09:53:11;17.10;1.00
26907;DHT22;14472;56.880;16.658;2022-10-16T09:55:51;17.20;1.00
26907;DHT22;14472;56.880;16.658;2022-10-16T09:58:17;17.20;1.00
26907;DHT22;14472;56.880;16.658;2022-10-16T10:00:50;17.10;1.00
26907;DHT22;14472;56.880;16.658;2022-10-16T10:03:37;17.20;1.00
26907;DHT22;14472;56.880;16.658;2022-10-16T10:06:14;17.30;1.00
26907;DHT22;14472;56.880;16.658;2022-10-16T10:09:35;17.30;1.00
26907;DHT22;14472;56.880;16.658;2022-10-16T10:11:44;17.40;1.00
26907;DHT22;14472;56.880;16.658;2022-10-16T10:14:25;17.40;1.00
26907;DHT22;14472;56.880;16.658;2022-10-16T10:17:01;17.50;1.00
26907;DHT22;14472;56.880;16.658;2022-10-16T10:19:37;17.60;1.00
26907;DHT22;14472;56.880;16.658;2022-10-16T10:22:21;17.60;1.00
26907;DHT22;14472;56.880;16.658;2022-10-16T10:25:01;17.70;1.00
26907;DHT22;14472;56.880;16.658;2022-10-16T10:36:09;17.90;1.00
26907;DHT22;14472;56.880;16.658;2022-10-16T10:39:00;17.90;1.00
26907;DHT22;14472;56.880;16.658;2022-10-16T10:44:16;17.90;1.00
26907;DHT22;14472;56.880;16.658;2022-10-16T10:46:57;17.90;1.00
26907;DHT22;14472;56.880;16.658;2022-10-16T10:52:16;17.90;1.00
26907;DHT22;14472;56.880;16.658;2022-10-16T10:54:54;17.90;1.00
26907;DHT22;14472;56.880;16.658;2022-10-16T10:58:28;17.90;1.00
26907;DHT22;14472;56.880;16.658;2022-10-16T11:05:56;17.90;1.00
26907;DHT22;14472;56.880;16.658;2022-10-16T11:08:36;17.90;1.00
26907;DHT22;14472;56.880;16.658;2022-10-16T11:11:17;17.90;1.00
26907;DHT22;14472;56.880;16.658;2022-10-16T11:17:12;18.00;1.00
26907;DHT22;14472;56.880;16.658;2022-10-16T11:23:01;18.10;1.00
26907;DHT22;14472;56.880;16.658;2022-10-16T11:25:31;18.10;1.00
26907;DHT22;14472;56.880;16.658;2022-10-16T11:30:28;18.20;1.00
26907;DHT22;14472;56.880;16.658;2022-10-16T11:35:47;18.20;1.00
26907;DHT22;14472;56.880;16.658;2022-10-16T11:46:42;18.20;1.00
26907;DHT22;14472;56.880;16.658;2022-10-16T11:49:25;18.30;1.00
26907;DHT22;14472;56.880;16.658;2022-10-16T11:54:43;18.30;1.00
26907;DHT22;14472;56.880;16.658;2022-10-16T11:57:31;18.30;1.00
26907;DHT22;14472;56.880;16.658;2022-10-16T12:00:23;18.30;1.00
26907;DHT22;14472;56.880;16.658;2022-10-16T12:08:02;18.40;1.00
26907;DHT22;14472;56.880;16.658;2022-10-16T12:10:30;18.40;1.00
26907;DHT22;14472;56.880;16.658;2022-10-16T12:13:03;18.40;1.00
26907;DHT22;14472;56.880;16.658;2022-10-16T12:15:32;18.40;1.00
26907;DHT22;14472;56.880;16.658;2022-10-16T12:17:58;18.30;1.00
26907;DHT22;14472;56.880;16.658;2022-10-16T12:20:32;18.30;1.00
26907;DHT22;14472;56.880;16.658;2022-10-16T12:23:04;18.40;1.00
26907;DHT22;14472;56.880;16.658;2022-10-16T12:25:35;18.40;1.00
26907;DHT22;14472;56.880;16.658;2022-10-16T12:30:31;18.40;1.00
26907;DHT22;14472;56.880;16.658;2022-10-16T12:33:05;18.30;1.00
26907;DHT22;14472;56.880;16.658;2022-10-16T12:35:43;18.40;1.00
26907;DHT22;14472;56.880;16.658;2022-10-16T12:40:45;18.40;1.00
26907;DHT22;14472;56.880;16.658;2022-10-16T12:43:25;18.30;1.00
26907;DHT22;14472;56.880;16.658;2022-10-16T12:46:03;18.30;1.00
26907;DHT22;14472;56.880;16.658;2022-10-16T12:48:29;18.30;1.00
26907;DHT22;14472;56.880;16.658;2022-10-16T12:50:56;18.30;1.00
26907;DHT22;14472;56.880;16.658;2022-10-16T12:53:25;18.30;1.00
26907;DHT22;14472;56.880;16.658;2022-10-16T13:06:39;18.30;1.00
26907;DHT22;14472;56.880;16.658;2022-10-16T13:09:19;18.30;1.00
26907;DHT22;14472;56.880;16.658;2022-10-16T13:11:59;18.30;1.00
26907;DHT22;14472;56.880;16.658;2022-10-16T13:28:03;18.20;1.00
26907;DHT22;14472;56.880;16.658;2022-10-16T13:30:31;18.20;1.00
26907;DHT22;14472;56.880;16.658;2022-10-16T13:33:04;18.20;1.00
26907;DHT22;14472;56.880;16.658;2022-10-16T13:35:33;18.10;1.00
26907;DHT22;14472;56.880;16.658;2022-10-16T13:38:13;18.10;1.00
26907;DHT22;14472;56.880;16.658;2022-10-16T13:41:16;18.10;1.00
26907;DHT22;14472;56.880;16.658;2022-10-16T13:43:48;18.00;1.00
26907;DHT22;14472;56.880;16.658;2022-10-16T13:46:17;18.00;1.00
26907;DHT22;14472;56.880;16.658;2022-10-16T13:48:45;18.00;1.00
26907;DHT22;14472;56.880;16.658;2022-10-16T13:51:21;18.00;1.00
26907;DHT22;14472;56.880;16.658;2022-10-16T13:53:47;18.00;1.00
26907;DHT22;14472;56.880;16.658;2022-10-16T13:56:15;18.00;1.00
26907;DHT22;14472;56.880;16.658;2022-10-16T13:58:42;17.90;1.00
26907;DHT22;14472;56.880;16.658;2022-10-16T14:01:18;17.90;1.00
26907;DHT22;14472;56.880;16.658;2022-10-16T14:03:45;17.90;1.00
26907;DHT22;14472;56.880;16.658;2022-10-16T14:06:14;17.80;1.00
26907;DHT22;14472;56.880;16.658;2022-10-16T14:09:01;17.80;1.00
26907;DHT22;14472;56.880;16.658;2022-10-16T14:11:27;17.80;1.00
26907;DHT22;14472;56.880;16.658;2022-10-16T14:13:54;17.70;1.00
26907;DHT22;14472;56.880;16.658;2022-10-16T14:16:26;17.70;1.00
26907;DHT22;14472;56.880;16.658;2022-10-16T14:19:04;17.70;1.00
26907;DHT22;14472;56.880;16.658;2022-10-16T14:21:33;17.60;1.00
26907;DHT22;14472;56.880;16.658;2022-10-16T14:23:59;17.60;1.00
26907;DHT22;14472;56.880;16.658;2022-10-16T14:26:41;17.60;1.00
26907;DHT22;14472;56.880;16.658;2022-10-16T14:29:14;17.60;1.00
26907;DHT22;14472;56.880;16.658;2022-10-16T14:31:42;17.60;1.00
26907;DHT22;14472;56.880;16.658;2022-10-16T14:36:56;17.50;1.00
26907;DHT22;14472;56.880;16.658;2022-10-16T14:39:22;17.50;1.00
26907;DHT22;14472;56.880;16.658;2022-10-16T14:41:54;17.40;1.00
26907;DHT22;14472;56.880;16.658;2022-10-16T14:44:27;17.40;1.00
26907;DHT22;14472;56.880;16.658;2022-10-16T14:46:53;17.40;1.00
26907;DHT22;14472;56.880;16.658;2022-10-16T14:49:23;17.30;1.00
26907;DHT22;14472;56.880;16.658;2022-10-16T14:51:49;17.30;1.00
26907;DHT22;14472;56.880;16.658;2022-10-16T14:54:16;17.30;1.00
26907;DHT22;14472;56.880;16.658;2022-10-16T14:57:00;17.30;1.00
26907;DHT22;14472;56.880;16.658;2022-10-16T14:59:37;17.20;1.00
26907;DHT22;14472;56.880;16.658;2022-10-16T15:04:46;17.10;1.00
26907;DHT22;14472;56.880;16.658;2022-10-16T15:07:12;17.10;1.00
26907;DHT22;14472;56.880;16.658;2022-10-16T15:09:38;17.00;1.00
26907;DHT22;14472;56.880;16.658;2022-10-16T15:12:04;16.90;1.00
26907;DHT22;14472;56.880;16.658;2022-10-16T15:14:29;16.90;1.00
26907;DHT22;14472;56.880;16.658;2022-10-16T15:16:55;16.90;1.00
26907;DHT22;14472;56.880;16.658;2022-10-16T15:19:21;16.80;1.00
26907;DHT22;14472;56.880;16.658;2022-10-16T15:21:47;16.80;1.00
26907;DHT22;14472;56.880;16.658;2022-10-16T15:24:14;16.80;1.00
26907;DHT22;14472;56.880;16.658;2022-10-16T15:26:40;16.80;1.00
26907;DHT22;14472;56.880;16.658;2022-10-16T15:29:06;16.70;1.00
26907;DHT22;14472;56.880;16.658;2022-10-16T15:31:32;16.70;1.00
26907;DHT22;14472;56.880;16.658;2022-10-16T15:33:58;16.70;1.00
26907;DHT22;14472;56.880;16.658;2022-10-16T15:36:31;16.70;1.00
26907;DHT22;14472;56.880;16.658;2022-10-16T15:38:59;16.70;1.00
26907;DHT22;14472;56.880;16.658;2022-10-16T15:41:25;16.60;1.00
26907;DHT22;14472;56.880;16.658;2022-10-16T15:43:51;16.60;1.00
26907;DHT22;14472;56.880;16.658;2022-10-16T15:46:19;16.60;1.00
26907;DHT22;14472;56.880;16.658;2022-10-16T15:48:46;16.50;1.00
26907;DHT22;14472;56.880;16.658;2022-10-16T15:51:12;16.20;1.00
26907;DHT22;14472;56.880;16.658;2022-10-16T15:53:38;16.10;1.00
26907;DHT22;14472;56.880;16.658;2022-10-16T15:56:05;15.80;1.00
26907;DHT22;14472;56.880;16.658;2022-10-16T15:58:31;15.60;1.00
26907;DHT22;14472;56.880;16.658;2022-10-16T16:00:58;15.50;1.00
26907;DHT22;14472;56.880;16.658;2022-10-16T16:03:26;15.30;1.00
26907;DHT22;14472;56.880;16.658;2022-10-16T16:05:52;15.20;1.00
26907;DHT22;14472;56.880;16.658;2022-10-16T16:08:18;15.10;1.00
26907;DHT22;14472;56.880;16.658;2022-10-16T16:10:44;15.00;1.00
26907;DHT22;14472;56.880;16.658;2022-10-16T16:13:10;14.90;1.00
26907;DHT22;14472;56.880;16.658;2022-10-16T16:15:39;14.90;1.00
26907;DHT22;14472;56.880;16.658;2022-10-16T16:18:06;14.60;1.00
26907;DHT22;14472;56.880;16.658;2022-10-16T16:20:31;14.60;1.00
26907;DHT22;14472;56.880;16.658;2022-10-16T16:22:57;14.60;1.00
26907;DHT22;14472;56.880;16.658;2022-10-16T16:25:23;14.50;1.00
26907;DHT22;14472;56.880;16.658;2022-10-16T16:27:49;14.40;1.00
26907;DHT22;14472;56.880;16.658;2022-10-16T16:30:14;14.40;1.00
26907;DHT22;14472;56.880;16.658;2022-10-16T16:32:40;14.40;1.00
26907;DHT22;14472;56.880;16.658;2022-10-16T16:35:06;14.30;1.00
26907;DHT22;14472;56.880;16.658;2022-10-16T16:37:32;14.30;1.00
26907;DHT22;14472;56.880;16.658;2022-10-16T16:39:58;14.30;1.00
26907;DHT22;14472;56.880;16.658;2022-10-16T16:42:25;14.30;1.00
26907;DHT22;14472;56.880;16.658;2022-10-16T16:44:51;14.20;1.00
26907;DHT22;14472;56.880;16.658;2022-10-16T16:47:16;14.20;1.00
26907;DHT22;14472;56.880;16.658;2022-10-16T16:49:42;14.20;1.00
26907;DHT22;14472;56.880;16.658;2022-10-16T16:52:08;14.10;1.00
26907;DHT22;14472;56.880;16.658;2022-10-16T16:54:33;14.10;1.00
26907;DHT22;14472;56.880;16.658;2022-10-16T16:56:59;14.10;1.00
26907;DHT22;14472;56.880;16.658;2022-10-16T16:59:26;14.10;1.00
26907;DHT22;14472;56.880;16.658;2022-10-16T17:01:52;14.00;1.00
26907;DHT22;14472;56.880;16.658;2022-10-16T17:04:18;14.10;1.00
26907;DHT22;14472;56.880;16.658;2022-10-16T17:06:44;14.10;1.00
26907;DHT22;14472;56.880;16.658;2022-10-16T17:09:10;14.00;1.00
26907;DHT22;14472;56.880;16.658;2022-10-16T17:11:38;14.00;1.00
26907;DHT22;14472;56.880;16.658;2022-10-16T17:14:06;14.00;1.00
26907;DHT22;14472;56.880;16.658;2022-10-16T17:16:35;14.00;1.00
26907;DHT22;14472;56.880;16.658;2022-10-16T17:19:10;14.00;1.00
26907;DHT22;14472;56.880;16.658;2022-10-16T17:21:37;14.00;1.00
26907;DHT22;14472;56.880;16.658;2022-10-16T17:24:03;14.00;1.00
26907;DHT22;14472;56.880;16.658;2022-10-16T17:26:29;14.00;1.00
26907;DHT22;14472;56.880;16.658;2022-10-16T17:28:58;14.00;1.00
26907;DHT22;14472;56.880;16.658;2022-10-16T17:31:30;13.90;1.00